Time;durP1;ratioP1;P1;durP2;ratioP2;P2;SDS_P1;SDS_P2;PMS_P1;PMS_P2;Temp;Humidity;BMP_temperature;BMP_pressure;BME280_temperature;BME280_humidity;BME280_pressure;Samples;Min_cycle;Max_cycle;Signal;HPM_P1;HPM_P2
2022/12/04 00:03:02;;;;;;;6.00;4.03;;;1.70;99.90;;;;;;6311109;28;20472;-68
2022/12/04 00:06:10;;;;;;;3.97;3.70;;;1.60;99.90;;;;;;6311747;28;20347;-68
2022/12/04 00:09:14;;;;;;;3.60;3.40;;;1.60;99.90;;;;;;6311124;28;20307;-70
2022/12/04 00:12:19;;;;;;;3.43;3.30;;;1.60;99.90;;;;;;6311046;28;20263;-69
2022/12/04 00:15:24;;;;;;;3.97;3.67;;;1.50;99.90;;;;;;6311069;28;20271;-70
2022/12/04 00:18:32;;;;;;;9.83;3.73;;;1.50;99.90;;;;;;6310832;28;20623;-69
2022/12/04 00:21:36;;;;;;;3.70;3.50;;;1.60;99.90;;;;;;6311154;28;20568;-69
2022/12/04 00:24:41;;;;;;;3.53;3.33;;;1.40;99.90;;;;;;6310171;28;20454;-69
2022/12/04 00:27:46;;;;;;;3.50;3.30;;;1.40;99.90;;;;;;6310982;28;20598;-69
2022/12/04 00:30:50;;;;;;;3.30;3.10;;;1.40;99.90;;;;;;6311062;28;20297;-69
2022/12/04 00:33:57;;;;;;;3.30;3.13;;;1.40;99.90;;;;;;6310584;28;20295;-69
2022/12/04 00:37:02;;;;;;;3.50;3.30;;;1.50;99.90;;;;;;6310595;28;20273;-69
2022/12/04 00:40:08;;;;;;;3.07;2.97;;;1.40;99.90;;;;;;6310332;28;20560;-69
2022/12/04 00:43:13;;;;;;;4.23;3.20;;;1.40;99.90;;;;;;6310146;28;20286;-68
2022/12/04 00:46:19;;;;;;;3.07;2.97;;;1.40;99.90;;;;;;6310586;28;20267;-69
2022/12/04 00:49:26;;;;;;;3.87;3.67;;;1.30;99.90;;;;;;6310171;28;20309;-69
2022/12/04 00:52:30;;;;;;;3.97;3.37;;;1.30;99.90;;;;;;6310029;28;20294;-69
2022/12/04 00:55:38;;;;;;;3.10;3.00;;;1.30;99.90;;;;;;6311004;28;20263;-69
2022/12/04 00:58:43;;;;;;;3.70;3.50;;;1.40;99.90;;;;;;6310401;28;20294;-69
2022/12/04 01:01:48;;;;;;;2.87;2.77;;;1.40;99.90;;;;;;6310611;28;20271;-68
2022/12/04 01:04:54;;;;;;;3.83;3.40;;;1.30;99.90;;;;;;6292805;28;20305;-69
2022/12/04 01:07:59;;;;;;;3.60;3.40;;;1.30;99.90;;;;;;6309818;28;20458;-69
2022/12/04 01:11:06;;;;;;;3.40;3.20;;;1.30;99.90;;;;;;6310725;28;20570;-69
2022/12/04 01:14:12;;;;;;;3.80;3.50;;;1.30;99.90;;;;;;6310698;28;20290;-69
2022/12/04 01:17:16;;;;;;;2.90;2.80;;;1.40;99.90;;;;;;6310745;28;20269;-70
2022/12/04 01:20:23;;;;;;;3.87;3.57;;;1.30;99.90;;;;;;6310363;28;20279;-69
2022/12/04 01:23:27;;;;;;;3.30;3.20;;;1.30;99.90;;;;;;6309767;28;20303;-68
2022/12/04 01:26:32;;;;;;;3.00;2.90;;;1.30;99.90;;;;;;6310570;28;20341;-70
2022/12/04 01:29:37;;;;;;;2.90;2.80;;;1.30;99.90;;;;;;6309084;28;20463;-67
2022/12/04 01:32:42;;;;;;;3.17;3.00;;;1.30;99.90;;;;;;6309916;28;20297;-67
2022/12/04 01:35:54;;;;;;;3.37;3.27;;;1.30;99.90;;;;;;6311416;28;20267;-67
2022/12/04 01:38:59;;;;;;;3.67;3.47;;;1.30;99.90;;;;;;6314250;28;20291;-68
2022/12/04 01:42:04;;;;;;;3.17;3.07;;;1.30;99.90;;;;;;6315131;28;20266;-68
2022/12/04 01:45:40;;;;;;;3.50;3.33;;;1.20;99.90;;;;;;6314205;28;20294;-68
2022/12/04 01:48:52;;;;;;;3.53;3.33;;;1.30;99.90;;;;;;6280884;28;20295;-69
2022/12/04 01:52:01;;;;;;;3.17;3.07;;;1.40;99.90;;;;;;6314525;28;20293;-69
2022/12/04 01:55:07;;;;;;;3.30;3.17;;;1.40;99.90;;;;;;6313637;28;20459;-68
2022/12/04 01:58:13;;;;;;;3.93;3.63;;;1.40;99.90;;;;;;6314070;28;20294;-67
2022/12/04 02:01:17;;;;;;;3.60;3.40;;;1.40;99.90;;;;;;6314689;28;20276;-69
2022/12/04 02:04:23;;;;;;;3.27;3.17;;;1.40;99.90;;;;;;6314264;28;20473;-69
2022/12/04 02:07:29;;;;;;;3.47;3.33;;;1.40;99.90;;;;;;6314079;28;20294;-68
2022/12/04 02:10:43;;;;;;;3.57;3.37;;;1.40;99.90;;;;;;6314269;28;20299;-69
2022/12/04 02:13:55;;;;;;;3.27;3.10;;;1.40;99.90;;;;;;6313981;28;20361;-67
2022/12/04 02:17:10;;;;;;;3.40;3.30;;;1.30;99.90;;;;;;6313820;28;20269;-67
2022/12/04 02:20:23;;;;;;;3.37;3.27;;;1.30;99.90;;;;;;6313054;28;20278;-67
2022/12/04 02:23:55;;;;;;;3.10;3.00;;;1.30;99.90;;;;;;6313635;28;20298;-67
2022/12/04 02:27:04;;;;;;;4.13;3.83;;;1.20;99.90;;;;;;6314257;28;20266;-68
2022/12/04 02:30:14;;;;;;;3.87;3.67;;;1.30;99.90;;;;;;6313241;28;20291;-68
2022/12/04 02:33:22;;;;;;;3.90;3.70;;;1.20;99.90;;;;;;6313637;28;20343;-68
2022/12/04 02:36:30;;;;;;;3.50;3.40;;;1.30;99.90;;;;;;6314072;28;20267;-68
2022/12/04 02:39:39;;;;;;;3.50;3.30;;;1.30;99.90;;;;;;6313710;28;20301;-69
2022/12/04 02:42:48;;;;;;;3.30;3.10;;;1.30;99.90;;;;;;6313598;28;20473;-67
2022/12/04 02:45:59;;;;;;;3.20;3.10;;;1.20;99.90;;;;;;6312947;28;20298;-67
2022/12/04 02:49:11;;;;;;;3.20;3.00;;;1.20;99.90;;;;;;6311975;28;20297;-68
2022/12/04 02:52:21;;;;;;;3.37;3.17;;;1.10;99.90;;;;;;6312926;28;20290;-67
2022/12/04 02:55:30;;;;;;;3.23;3.03;;;1.00;99.90;;;;;;6313558;28;20400;-68
2022/12/04 02:58:41;;;;;;;3.00;2.90;;;1.10;99.90;;;;;;6312779;28;20293;-68
2022/12/04 03:01:50;;;;;;;3.50;3.27;;;1.10;99.90;;;;;;6295158;28;20274;-69
2022/12/04 03:04:56;;;;;;;3.20;3.10;;;1.10;99.90;;;;;;6312758;28;20295;-68
2022/12/04 03:08:04;;;;;;;3.00;2.90;;;1.10;99.90;;;;;;6312329;28;20296;-68
2022/12/04 03:11:09;;;;;;;3.20;3.00;;;1.10;99.90;;;;;;6312103;28;20282;-68
2022/12/04 03:14:17;;;;;;;3.07;2.83;;;1.10;99.90;;;;;;6312513;28;20293;-68
2022/12/04 03:17:27;;;;;;;3.10;3.00;;;1.10;99.90;;;;;;6311778;28;20271;-67
2022/12/04 03:20:34;;;;;;;3.03;2.93;;;1.00;99.90;;;;;;6312445;28;20274;-69
2022/12/04 03:23:46;;;;;;;3.20;3.00;;;1.00;99.90;;;;;;6294330;28;20389;-69
2022/12/04 03:26:57;;;;;;;2.63;2.53;;;1.00;99.90;;;;;;6312448;28;20269;-69
2022/12/04 03:30:06;;;;;;;2.93;2.83;;;0.90;99.90;;;;;;6294469;28;20454;-69
2022/12/04 03:33:18;;;;;;;3.30;3.20;;;1.00;99.90;;;;;;6311670;28;20298;-68
2022/12/04 03:36:27;;;;;;;2.63;2.53;;;1.00;99.90;;;;;;6311914;28;20462;-68
2022/12/04 03:39:37;;;;;;;3.00;2.90;;;0.90;99.90;;;;;;6311082;28;20298;-69
2022/12/04 03:42:47;;;;;;;3.30;3.20;;;0.80;99.90;;;;;;6312075;28;20302;-69
2022/12/04 03:45:57;;;;;;;3.50;3.30;;;0.80;99.90;;;;;;6311786;28;20297;-68
2022/12/04 03:49:11;;;;;;;3.47;3.27;;;0.80;99.90;;;;;;6311306;28;20301;-68
2022/12/04 03:52:23;;;;;;;3.60;3.50;;;0.90;99.90;;;;;;6311503;28;20292;-69
2022/12/04 03:55:32;;;;;;;3.50;3.30;;;0.90;99.90;;;;;;6311409;28;20270;-68
2022/12/04 03:58:41;;;;;;;3.33;3.23;;;0.80;99.90;;;;;;6310465;28;20301;-67
2022/12/04 04:01:49;;;;;;;3.00;2.90;;;0.80;99.90;;;;;;6310839;28;20277;-68
2022/12/04 04:04:58;;;;;;;3.80;3.40;;;0.70;99.90;;;;;;6305854;28;20593;-68
2022/12/04 04:11:31;;;;;;;3.83;3.53;;;0.80;99.90;;;;;;6310488;28;20289;-69
2022/12/04 04:25:05;;;;;;;3.77;3.57;;;0.70;99.90;;;;;;6310500;28;20294;-68
2022/12/04 04:28:31;;;;;;;3.80;3.57;;;0.60;99.90;;;;;;6310778;28;20294;-69
2022/12/04 04:31:40;;;;;;;3.87;3.60;;;0.60;99.90;;;;;;6310517;28;20586;-68
2022/12/04 04:34:54;;;;;;;3.20;3.10;;;0.70;99.90;;;;;;6310760;28;20291;-70
2022/12/04 04:38:07;;;;;;;3.70;3.47;;;0.70;99.90;;;;;;6309935;28;20430;-68
2022/12/04 04:41:18;;;;;;;4.07;3.80;;;0.70;99.90;;;;;;6310555;28;20454;-68
2022/12/04 04:44:28;;;;;;;3.90;3.60;;;0.60;99.90;;;;;;6310207;28;20299;-68
2022/12/04 04:47:45;;;;;;;3.70;3.50;;;0.70;99.90;;;;;;6311052;28;20292;-69
2022/12/04 04:50:50;;;;;;;3.40;3.20;;;0.60;99.90;;;;;;6310044;28;20342;-68
2022/12/04 04:53:59;;;;;;;3.50;3.30;;;0.70;99.90;;;;;;6310270;28;20308;-69
2022/12/04 04:57:04;;;;;;;3.80;3.60;;;0.70;99.90;;;;;;6310697;28;20273;-70
2022/12/04 05:00:15;;;;;;;3.70;3.50;;;0.70;99.90;;;;;;6310451;28;20302;-69
2022/12/04 05:03:19;;;;;;;3.57;3.27;;;0.70;99.90;;;;;;6309922;28;20294;-69
2022/12/04 05:06:24;;;;;;;3.80;3.60;;;0.60;99.90;;;;;;6310843;28;20275;-69
2022/12/04 05:09:30;;;;;;;3.80;3.60;;;0.60;99.90;;;;;;6310043;28;20293;-69
2022/12/04 05:12:40;;;;;;;3.43;3.23;;;0.60;99.90;;;;;;6314433;28;20305;-69
2022/12/04 05:15:45;;;;;;;3.73;3.53;;;0.60;99.90;;;;;;6315109;28;20269;-69
2022/12/04 05:22:09;;;;;;;3.60;3.30;;;0.60;99.90;;;;;;6314451;28;20273;-69
2022/12/04 05:25:15;;;;;;;3.77;3.50;;;0.50;99.90;;;;;;6314839;28;20310;-69
2022/12/04 05:28:21;;;;;;;3.00;2.90;;;0.60;99.90;;;;;;6314890;28;20289;-69
2022/12/04 05:31:25;;;;;;;3.27;3.17;;;0.50;99.90;;;;;;6315632;28;20276;-69
2022/12/04 05:34:30;;;;;;;3.40;3.10;;;0.60;99.90;;;;;;6314810;28;20290;-68
2022/12/04 05:37:37;;;;;;;3.17;3.07;;;0.50;99.90;;;;;;6314990;28;20270;-68
2022/12/04 05:40:44;;;;;;;3.43;3.23;;;0.60;99.90;;;;;;6314445;28;20451;-68
2022/12/04 05:43:48;;;;;;;3.10;3.00;;;0.50;99.90;;;;;;6314267;28;20502;-68
2022/12/04 05:46:53;;;;;;;3.30;3.20;;;0.40;99.90;;;;;;6315031;28;20264;-69
2022/12/04 05:49:58;;;;;;;3.40;3.30;;;0.50;99.90;;;;;;6315519;28;20293;-69
2022/12/04 05:53:02;;;;;;;3.77;3.57;;;0.50;99.90;;;;;;6315430;28;20292;-70
2022/12/04 05:56:10;;;;;;;3.43;3.30;;;0.40;99.90;;;;;;6315206;28;20274;-70
2022/12/04 05:59:15;;;;;;;3.13;2.90;;;0.40;99.90;;;;;;6314119;28;20300;-70
2022/12/04 06:05:42;;;;;;;3.07;2.97;;;0.40;99.90;;;;;;6296122;28;20271;-68
2022/12/04 06:08:47;;;;;;;3.17;3.07;;;0.40;99.90;;;;;;6314334;28;20295;-69
2022/12/04 06:11:57;;;;;;;3.20;3.07;;;0.50;99.90;;;;;;6296111;28;20263;-69
2022/12/04 06:15:02;;;;;;;2.57;2.47;;;0.50;99.90;;;;;;6314029;28;20294;-69
2022/12/04 06:18:07;;;;;;;2.57;2.57;;;0.60;99.90;;;;;;6313589;28;20447;-69
2022/12/04 06:21:12;;;;;;;2.67;2.57;;;0.50;99.90;;;;;;6314604;28;20266;-69
2022/12/04 06:24:20;;;;;;;3.20;3.10;;;0.60;99.90;;;;;;6312254;28;20297;-69
2022/12/04 06:27:26;;;;;;;2.77;2.63;;;0.50;99.90;;;;;;6314104;28;20445;-69
2022/12/04 06:30:34;;;;;;;2.90;2.80;;;0.40;99.90;;;;;;6313372;28;20293;-70
2022/12/04 06:33:38;;;;;;;2.93;2.83;;;0.50;99.90;;;;;;6313078;28;20298;-69
2022/12/04 06:36:43;;;;;;;2.83;2.73;;;0.40;99.90;;;;;;6314266;28;20269;-69
2022/12/04 06:39:48;;;;;;;2.87;2.77;;;0.40;99.90;;;;;;6312980;28;20590;-68
2022/12/04 06:42:54;;;;;;;3.13;3.03;;;0.40;99.90;;;;;;6313042;28;20272;-68
2022/12/04 06:46:04;;;;;;;3.33;3.13;;;0.40;99.90;;;;;;6313520;28;20301;-68
2022/12/04 06:49:11;;;;;;;3.30;3.20;;;0.40;99.90;;;;;;6313205;28;20292;-68
2022/12/04 06:52:16;;;;;;;3.50;3.30;;;0.40;99.90;;;;;;6313680;28;20269;-69
2022/12/04 06:55:21;;;;;;;3.10;3.00;;;0.50;99.90;;;;;;6312926;28;20292;-69
2022/12/04 06:58:27;;;;;;;2.70;2.60;;;0.40;99.90;;;;;;6313018;28;20311;-69
2022/12/04 07:01:34;;;;;;;2.93;2.83;;;0.40;99.90;;;;;;6313186;28;20270;-69
2022/12/04 07:04:39;;;;;;;2.53;2.53;;;0.40;99.90;;;;;;6312568;28;20302;-69
2022/12/04 07:07:44;;;;;;;2.80;2.70;;;0.40;99.90;;;;;;6312300;28;20270;-70
2022/12/04 07:10:48;;;;;;;3.03;2.83;;;0.40;99.90;;;;;;6313038;28;20284;-69
2022/12/04 07:14:02;;;;;;;2.97;2.87;;;0.40;99.90;;;;;;6312320;28;20301;-68
2022/12/04 07:17:07;;;;;;;2.80;2.70;;;0.40;99.90;;;;;;6313015;28;20274;-69
2022/12/04 07:20:14;;;;;;;3.20;3.00;;;0.40;99.90;;;;;;6312370;28;20304;-69
2022/12/04 07:23:19;;;;;;;2.67;2.57;;;0.40;99.90;;;;;;6312003;28;20293;-69
2022/12/04 07:26:25;;;;;;;2.77;2.77;;;0.40;99.90;;;;;;6312865;28;20264;-69
2022/12/04 07:29:31;;;;;;;3.10;2.90;;;0.40;99.90;;;;;;6312053;28;20296;-70
2022/12/04 07:32:36;;;;;;;2.93;2.83;;;0.40;99.90;;;;;;6312166;28;20272;-69
2022/12/04 07:35:40;;;;;;;3.40;2.70;;;0.40;99.90;;;;;;6311627;28;20422;-69
2022/12/04 07:38:46;;;;;;;3.27;3.17;;;0.40;99.90;;;;;;6311760;28;20472;-69
2022/12/04 07:41:50;;;;;;;3.20;3.00;;;0.30;99.90;;;;;;6312147;28;20348;-70
2022/12/04 07:44:56;;;;;;;3.20;3.10;;;0.40;99.90;;;;;;6311735;28;20325;-69
2022/12/04 07:48:01;;;;;;;3.67;3.43;;;0.30;99.90;;;;;;6311659;28;20486;-67
2022/12/04 07:51:08;;;;;;;3.40;3.17;;;0.40;99.90;;;;;;6311695;28;20577;-69
2022/12/04 07:54:13;;;;;;;3.20;3.10;;;0.40;99.90;;;;;;6311421;28;20301;-69
2022/12/04 07:57:18;;;;;;;3.00;2.90;;;0.40;99.90;;;;;;6312067;28;20273;-69
2022/12/04 08:00:24;;;;;;;2.80;2.70;;;0.40;99.90;;;;;;6311485;28;20294;-69
2022/12/04 08:03:29;;;;;;;3.30;3.10;;;0.40;99.90;;;;;;6311377;28;20293;-69
2022/12/04 08:06:34;;;;;;;2.67;2.57;;;0.40;99.90;;;;;;6311074;28;20285;-69
2022/12/04 08:09:39;;;;;;;3.00;2.90;;;0.40;99.90;;;;;;6311151;28;20296;-69
2022/12/04 08:12:44;;;;;;;3.20;3.00;;;0.40;99.90;;;;;;6310646;28;20285;-69
2022/12/04 08:15:50;;;;;;;4.63;3.07;;;0.40;99.90;;;;;;6310883;28;20289;-70
2022/12/04 08:18:55;;;;;;;3.40;3.30;;;0.40;99.90;;;;;;6310562;28;20297;-68
2022/12/04 08:22:00;;;;;;;3.00;2.90;;;0.40;99.90;;;;;;6311537;28;20273;-69
2022/12/04 08:25:06;;;;;;;3.47;3.23;;;0.40;99.90;;;;;;6310659;28;20301;-69
2022/12/04 08:28:13;;;;;;;3.00;2.90;;;0.40;99.90;;;;;;6310432;28;20285;-70
2022/12/04 08:31:21;;;;;;;3.13;2.93;;;0.40;99.90;;;;;;6311298;28;20274;-70
2022/12/04 08:34:26;;;;;;;3.00;2.90;;;0.40;99.90;;;;;;6310614;28;20300;-70
2022/12/04 08:37:31;;;;;;;3.30;3.20;;;0.50;99.90;;;;;;6310896;28;20269;-69
2022/12/04 08:40:35;;;;;;;3.23;3.03;;;0.50;99.90;;;;;;6292844;28;20305;-70
2022/12/04 08:43:40;;;;;;;3.43;3.33;;;0.50;99.90;;;;;;6310136;28;20358;-69
2022/12/04 08:46:46;;;;;;;3.50;3.20;;;0.50;99.90;;;;;;6310305;28;20539;-70
2022/12/04 08:49:51;;;;;;;3.33;3.13;;;0.50;99.90;;;;;;6310219;28;20301;-69
2022/12/04 08:52:56;;;;;;;3.27;3.07;;;0.40;99.90;;;;;;6310426;28;20274;-69
2022/12/04 08:56:01;;;;;;;3.90;3.27;;;0.40;99.90;;;;;;6311057;28;20289;-68
2022/12/04 08:59:06;;;;;;;3.70;3.50;;;0.40;99.90;;;;;;6310042;28;20289;-69
2022/12/04 09:02:15;;;;;;;3.93;3.63;;;0.50;99.90;;;;;;6310267;28;20446;-69
2022/12/04 09:05:20;;;;;;;3.20;3.10;;;0.50;99.90;;;;;;6310145;28;20293;-69
2022/12/04 09:08:24;;;;;;;3.63;3.43;;;0.50;99.90;;;;;;6310164;28;20294;-69
2022/12/04 09:11:31;;;;;;;3.53;3.33;;;0.50;99.90;;;;;;6310366;28;20312;-68
2022/12/04 09:14:36;;;;;;;3.37;3.17;;;0.40;99.90;;;;;;6309723;28;20486;-69
2022/12/04 09:17:42;;;;;;;3.77;3.57;;;0.40;99.90;;;;;;6309590;28;20266;-67
2022/12/04 09:20:56;;;;;;;3.27;3.17;;;0.50;99.90;;;;;;6310724;28;20270;-69
2022/12/04 09:24:01;;;;;;;3.60;3.37;;;0.50;99.90;;;;;;6309808;28;20301;-69
2022/12/04 09:27:07;;;;;;;3.40;3.30;;;0.50;99.90;;;;;;6310653;28;20269;-69
2022/12/04 09:30:18;;;;;;;3.20;3.00;;;0.50;99.90;;;;;;6309954;28;20295;-69
2022/12/04 09:33:24;;;;;;;3.30;3.10;;;0.60;99.90;;;;;;6309512;28;20289;-71
2022/12/04 09:36:29;;;;;;;3.23;3.13;;;0.60;99.90;;;;;;6309955;28;20289;-70
2022/12/04 09:39:34;;;;;;;3.33;3.23;;;0.50;99.90;;;;;;6309540;28;20380;-69
2022/12/04 09:42:44;;;;;;;3.30;3.10;;;0.60;99.90;;;;;;6309757;28;20270;-69
2022/12/04 09:45:53;;;;;;;3.77;3.47;;;0.70;99.90;;;;;;6308680;28;20305;-69
2022/12/04 09:49:03;;;;;;;3.77;3.60;;;0.70;99.90;;;;;;6309819;28;20294;-68
2022/12/04 09:52:17;;;;;;;3.97;3.77;;;0.70;99.90;;;;;;6291945;28;20298;-69
2022/12/04 09:55:29;;;;;;;4.00;3.70;;;0.80;99.90;;;;;;6284529;28;20468;-70
2022/12/04 09:58:41;;;;;;;3.43;3.30;;;0.80;99.90;;;;;;6288091;28;20604;-70
2022/12/04 10:01:48;;;;;;;4.00;3.67;;;0.80;99.90;;;;;;6289266;28;20478;-70
2022/12/04 10:04:54;;;;;;;3.10;3.00;;;0.90;99.90;;;;;;6289009;28;20291;-70
2022/12/04 10:08:05;;;;;;;3.87;3.57;;;0.90;99.90;;;;;;6288947;28;20456;-70
2022/12/04 10:11:14;;;;;;;3.60;3.40;;;0.90;99.90;;;;;;6289178;28;20259;-71
2022/12/04 10:14:32;;;;;;;4.50;4.10;;;0.90;99.90;;;;;;6289129;28;20311;-70
2022/12/04 10:18:01;;;;;;;4.03;3.83;;;0.90;99.90;;;;;;6289091;28;20270;-70
2022/12/04 10:21:32;;;;;;;3.57;3.10;;;0.90;99.90;;;;;;6288312;28;20279;-70
2022/12/04 10:24:43;;;;;;;3.40;3.20;;;0.80;99.90;;;;;;6288536;28;20303;-69
2022/12/04 10:27:53;;;;;;;4.37;4.00;;;0.70;99.90;;;;;;6288374;28;20274;-69
2022/12/04 10:31:01;;;;;;;5.70;4.27;;;0.80;99.90;;;;;;6289578;28;20275;-69
2022/12/04 10:34:13;;;;;;;4.27;3.93;;;1.10;99.90;;;;;;6288698;28;20298;-69
2022/12/04 10:37:19;;;;;;;;;;;1.00;99.90;;;;;;6288930;28;20112;-69
2022/12/04 10:40:31;;;;;;;3.93;3.63;;;0.90;99.90;;;;;;6288409;28;20275;-68
2022/12/04 10:43:43;;;;;;;12.93;9.17;;;1.30;99.90;;;;;;6293123;28;20294;-70
2022/12/04 10:46:48;;;;;;;5.47;4.97;;;1.80;99.90;;;;;;6313378;28;20593;-70
2022/12/04 10:49:59;;;;;;;7.90;5.10;;;1.60;99.90;;;;;;6313203;28;20290;-70
2022/12/04 10:53:06;;;;;;;4.37;4.13;;;1.40;99.90;;;;;;6312752;28;20463;-70
2022/12/04 10:56:21;;;;;;;4.80;4.50;;;1.40;99.90;;;;;;6313577;28;20278;-70
2022/12/04 10:59:26;;;;;;;5.07;4.67;;;1.30;99.90;;;;;;6313571;28;20581;-69
2022/12/04 11:02:33;;;;;;;4.40;4.10;;;1.30;99.90;;;;;;6312905;28;20277;-69
2022/12/04 11:05:43;;;;;;;4.47;4.20;;;1.20;99.90;;;;;;6312571;28;20299;-69
2022/12/04 11:08:52;;;;;;;4.80;4.43;;;1.10;99.90;;;;;;6312004;28;20298;-70
2022/12/04 11:12:08;;;;;;;4.50;4.30;;;1.10;99.90;;;;;;6313241;28;20260;-69
2022/12/04 11:15:16;;;;;;;4.30;4.07;;;1.20;99.90;;;;;;6312502;28;20598;-69
2022/12/04 11:18:23;;;;;;;4.27;4.03;;;1.10;99.90;;;;;;6312534;28;20472;-70
2022/12/04 11:21:30;;;;;;;4.37;4.07;;;1.20;99.90;;;;;;6312775;28;20273;-69
2022/12/04 11:24:38;;;;;;;4.33;4.03;;;1.20;99.90;;;;;;6312373;28;20290;-69
2022/12/04 11:27:48;;;;;;;4.20;4.00;;;1.20;99.90;;;;;;6311779;28;20481;-69
2022/12/04 11:30:55;;;;;;;4.50;4.20;;;1.20;99.90;;;;;;6312719;28;20264;-69
2022/12/04 11:34:03;;;;;;;5.07;4.57;;;1.10;99.90;;;;;;6312248;28;20292;-70
2022/12/04 11:37:20;;;;;;;5.10;4.60;;;1.10;99.90;;;;;;6312554;28;20569;-69
2022/12/04 11:40:27;;;;;;;4.90;4.57;;;1.00;99.90;;;;;;6294419;28;20291;-69
2022/12/04 11:43:33;;;;;;;4.37;4.13;;;0.90;99.90;;;;;;6311681;28;20311;-70
2022/12/04 11:46:37;;;;;;;5.20;4.80;;;1.00;99.90;;;;;;6297659;28;20473;-68
2022/12/04 11:49:42;;;;;;;5.10;4.70;;;0.90;99.90;;;;;;6286619;28;20373;-68
2022/12/04 11:53:02;;;;;;;5.13;4.63;;;0.90;99.90;;;;;;6286447;28;20271;-69
2022/12/04 11:56:21;;;;;;;7.47;4.67;;;0.90;99.90;;;;;;6287389;28;20271;-69
2022/12/04 11:59:53;;;;;;;5.00;4.60;;;0.90;99.90;;;;;;6286943;28;20306;-68
2022/12/04 12:03:12;;;;;;;4.57;4.20;;;0.90;99.90;;;;;;6286853;28;20263;-69
2022/12/04 12:06:31;;;;;;;3.80;3.70;;;1.00;99.90;;;;;;6286936;28;20289;-68
2022/12/04 12:09:41;;;;;;;4.87;4.57;;;0.90;99.90;;;;;;6286565;28;20296;-68
2022/12/04 12:12:57;;;;;;;4.87;4.57;;;0.90;99.90;;;;;;6285999;28;20268;-68
2022/12/04 12:16:09;;;;;;;5.13;4.83;;;0.80;99.90;;;;;;6287116;28;20271;-68
2022/12/04 12:19:38;;;;;;;4.10;3.90;;;0.90;99.90;;;;;;6286233;28;20296;-74
2022/12/04 12:23:20;;;;;;;4.73;4.43;;;0.90;99.90;;;;;;6285627;28;20450;-68
2022/12/04 12:26:34;;;;;;;5.00;4.50;;;0.90;99.90;;;;;;6284879;28;20288;-68
2022/12/04 12:29:55;;;;;;;4.40;4.17;;;0.90;99.90;;;;;;6285879;28;20300;-68
2022/12/04 12:33:10;;;;;;;4.67;4.37;;;0.80;99.90;;;;;;6285529;28;20269;-67
2022/12/04 12:36:15;;;;;;;4.63;4.37;;;0.80;99.90;;;;;;6286565;28;20275;-67
2022/12/04 12:39:23;;;;;;;4.70;4.40;;;0.80;99.90;;;;;;6285805;28;20302;-69
2022/12/04 12:42:32;;;;;;;4.97;4.57;;;0.90;99.90;;;;;;6286646;28;20274;-69
2022/12/04 12:45:45;;;;;;;4.50;4.23;;;0.90;99.90;;;;;;6307220;28;20307;-69
2022/12/04 12:48:59;;;;;;;4.50;4.07;;;0.90;99.90;;;;;;6310653;28;20306;-67
2022/12/04 12:52:07;;;;;;;5.00;4.60;;;1.00;99.90;;;;;;6311378;28;20312;-67
2022/12/04 12:55:18;;;;;;;4.77;4.17;;;1.00;99.90;;;;;;6310709;28;20297;-67
2022/12/04 12:58:29;;;;;;;4.13;3.93;;;1.00;99.90;;;;;;6310479;28;20321;-68
2022/12/04 13:01:45;;;;;;;4.97;4.57;;;0.90;99.90;;;;;;6310468;28;20270;-68
2022/12/04 13:04:52;;;;;;;5.70;5.20;;;0.90;99.90;;;;;;6310320;28;20292;-67
2022/12/04 13:08:03;;;;;;;4.83;4.50;;;0.90;99.90;;;;;;6310252;28;20290;-68
2022/12/04 13:11:12;;;;;;;3.90;3.70;;;0.80;99.90;;;;;;6311094;28;20443;-68
2022/12/04 13:14:17;;;;;;;4.70;4.47;;;0.80;99.90;;;;;;6310191;28;20293;-67
2022/12/04 13:17:31;;;;;;;4.10;3.80;;;0.70;99.90;;;;;;6310295;28;20272;-67
2022/12/04 13:20:44;;;;;;;4.50;4.10;;;0.60;99.90;;;;;;6310029;28;20298;-67
2022/12/04 13:23:56;;;;;;;5.67;5.23;;;0.60;99.90;;;;;;6309830;28;20306;-67
2022/12/04 13:27:07;;;;;;;4.23;4.03;;;0.60;99.90;;;;;;6310661;28;20290;-67
2022/12/04 13:30:17;;;;;;;4.80;4.50;;;0.70;99.90;;;;;;6310114;28;20301;-67
2022/12/04 13:33:48;;;;;;;4.60;4.30;;;0.70;99.90;;;;;;6313685;28;20302;-67
2022/12/04 13:37:26;;;;;;;5.20;4.80;;;0.70;99.90;;;;;;6315136;28;20274;-68
2022/12/04 13:40:35;;;;;;;4.80;4.53;;;0.60;99.90;;;;;;6314706;28;20293;-68
2022/12/04 13:43:46;;;;;;;4.60;4.40;;;0.70;99.90;;;;;;6314560;28;20303;-67
2022/12/04 13:46:56;;;;;;;4.93;4.53;;;0.70;99.90;;;;;;6315417;28;20286;-68
2022/12/04 13:50:29;;;;;;;4.90;4.60;;;0.70;99.90;;;;;;6314720;28;20615;-68
2022/12/04 13:53:38;;;;;;;4.47;4.20;;;0.70;99.90;;;;;;6314324;28;20320;-67
2022/12/04 13:56:45;;;;;;;4.47;4.23;;;0.70;99.90;;;;;;6314704;28;20273;-68
2022/12/04 14:00:00;;;;;;;4.50;4.20;;;0.80;99.90;;;;;;6296759;28;20298;-68
2022/12/04 14:03:24;;;;;;;4.53;4.33;;;0.70;99.90;;;;;;6314361;28;20293;-68
2022/12/04 14:06:38;;;;;;;4.30;4.00;;;0.80;99.90;;;;;;6306818;28;20465;-68
2022/12/04 14:09:49;;;;;;;4.40;4.20;;;0.80;99.90;;;;;;6289052;28;20477;-68
2022/12/04 14:13:00;;;;;;;4.57;4.33;;;0.70;99.90;;;;;;6288799;28;20273;-67
2022/12/04 14:16:07;;;;;;;4.60;3.90;;;0.60;99.90;;;;;;6289325;28;20274;-67
2022/12/04 14:19:27;;;;;;;4.80;4.17;;;0.60;99.90;;;;;;6288878;28;20474;-67
2022/12/04 14:22:43;;;;;;;3.70;3.47;;;0.60;99.90;;;;;;6289521;28;20273;-67
2022/12/04 14:25:50;;;;;;;4.17;3.90;;;0.70;99.90;;;;;;6288517;28;20564;-69
2022/12/04 14:29:06;;;;;;;10.93;7.17;;;0.70;99.90;;;;;;6288654;28;20304;-69
2022/12/04 14:32:18;;;;;;;52.23;16.63;;;0.80;99.90;;;;;;6289198;28;20270;-70
2022/12/04 14:35:24;;;;;;;6.67;6.07;;;0.70;99.90;;;;;;6288218;28;20298;-68
2022/12/04 14:38:31;;;;;;;4.30;4.10;;;0.70;99.90;;;;;;6288173;28;20302;-69
2022/12/04 14:41:35;;;;;;;4.37;4.17;;;0.70;99.90;;;;;;6288841;28;20275;-68
2022/12/04 14:44:40;;;;;;;4.37;4.07;;;0.60;99.90;;;;;;6286867;28;20295;-71
2022/12/04 14:47:55;;;;;;;4.27;4.07;;;0.60;99.90;;;;;;6288551;28;20295;-69
2022/12/04 14:51:11;;;;;;;4.03;3.73;;;0.60;99.90;;;;;;6288959;28;20393;-69
2022/12/04 14:54:26;;;;;;;4.33;4.13;;;0.60;99.90;;;;;;6288341;28;20299;-71
2022/12/04 14:57:46;;;;;;;35.70;18.93;;;0.60;99.90;;;;;;6287386;28;20468;-71
2022/12/04 15:00:51;;;;;;;6.90;6.30;;;0.70;99.90;;;;;;6287938;28;20445;-72
2022/12/04 15:03:59;;;;;;;4.70;4.27;;;0.70;99.90;;;;;;6288268;28;20468;-68
2022/12/04 15:13:43;;;;;;;5.27;3.90;;;0.70;99.90;;;;;;6348505;28;20309;-67
2022/12/04 15:16:48;;;;;;;4.00;3.80;;;0.70;99.90;;;;;;6332822;28;20273;-69
2022/12/04 15:19:52;;;;;;;3.73;3.60;;;0.60;99.90;;;;;;6332294;28;20316;-69
2022/12/04 15:22:57;;;;;;;3.83;3.63;;;0.60;99.90;;;;;;6332479;28;20274;-68
2022/12/04 15:26:07;;;;;;;4.07;3.87;;;0.70;99.90;;;;;;6332772;28;20268;-69
2022/12/04 15:29:17;;;;;;;4.07;3.87;;;0.70;99.90;;;;;;6331943;28;20306;-69
2022/12/04 15:32:24;;;;;;;4.13;3.93;;;0.70;99.90;;;;;;6332540;28;20575;-68
2022/12/04 15:35:32;;;;;;;4.20;4.10;;;0.60;99.90;;;;;;6332045;28;20294;-70
2022/12/04 15:38:37;;;;;;;3.90;3.70;;;0.60;99.90;;;;;;6331552;28;20315;-68
2022/12/04 15:41:43;;;;;;;3.60;3.30;;;0.60;99.90;;;;;;6331905;28;20277;-67
2022/12/04 15:44:52;;;;;;;4.33;4.03;;;0.60;99.90;;;;;;6331689;28;20322;-67
2022/12/04 15:47:58;;;;;;;7.67;5.80;;;0.60;99.90;;;;;;6331658;28;20295;-67
2022/12/04 15:51:05;;;;;;;5.27;4.97;;;0.50;99.90;;;;;;6331358;28;20275;-67
2022/12/04 15:54:16;;;;;;;4.23;4.03;;;0.50;99.90;;;;;;6331344;28;20301;-68
2022/12/04 15:57:28;;;;;;;3.63;3.53;;;0.40;99.90;;;;;;6331747;28;20553;-70
2022/12/04 16:00:36;;;;;;;3.80;3.60;;;0.50;99.90;;;;;;6331278;28;20293;-69
2022/12/04 16:03:47;;;;;;;3.63;3.50;;;0.50;99.90;;;;;;6331322;28;20349;-68
2022/12/04 16:06:53;;;;;;;4.03;3.83;;;0.60;99.90;;;;;;6332048;28;20263;-68
2022/12/04 16:10:02;;;;;;;3.67;3.57;;;0.60;99.90;;;;;;6331807;28;20295;-68
2022/12/04 16:13:29;;;;;;;3.70;3.50;;;0.60;99.90;;;;;;6331024;28;20297;-69
2022/12/04 16:16:35;;;;;;;4.03;3.83;;;0.50;99.90;;;;;;6331686;28;20268;-70
2022/12/04 16:19:41;;;;;;;4.50;4.20;;;0.50;99.90;;;;;;6323933;28;20294;-69
2022/12/04 16:22:50;;;;;;;4.43;4.23;;;0.40;99.90;;;;;;6314573;28;20269;-73
2022/12/04 16:25:57;;;;;;;4.30;4.10;;;0.50;99.90;;;;;;6315004;28;20269;-69
2022/12/04 16:29:07;;;;;;;4.60;4.30;;;0.50;99.90;;;;;;6313846;28;20474;-69
2022/12/04 16:32:14;;;;;;;4.27;3.90;;;0.50;99.90;;;;;;6314841;28;20459;-72
2022/12/04 16:35:20;;;;;;;4.30;4.00;;;0.60;99.90;;;;;;6314351;28;20298;-69
2022/12/04 16:38:25;;;;;;;4.17;3.97;;;0.60;99.90;;;;;;6313918;28;20295;-71
2022/12/04 16:41:29;;;;;;;5.30;4.90;;;0.50;99.90;;;;;;6314595;28;20281;-67
2022/12/04 16:44:39;;;;;;;5.03;4.70;;;0.40;99.90;;;;;;6312883;28;20293;-68
2022/12/04 16:47:45;;;;;;;4.03;3.93;;;0.40;99.90;;;;;;6313228;28;20272;-68
2022/12/04 16:50:50;;;;;;;4.03;3.83;;;0.50;99.90;;;;;;6314136;28;20290;-65
2022/12/04 16:53:55;;;;;;;4.40;4.10;;;0.40;99.90;;;;;;6312307;28;20321;-70
2022/12/04 16:57:00;;;;;;;5.80;5.40;;;0.50;99.90;;;;;;6314107;28;20265;-67
2022/12/04 17:00:11;;;;;;;4.23;4.03;;;0.40;99.90;;;;;;6313454;28;20473;-72
2022/12/04 17:03:21;;;;;;;4.47;4.17;;;0.40;99.90;;;;;;6312869;28;20329;-71
2022/12/04 17:06:26;;;;;;;4.70;4.30;;;0.50;99.90;;;;;;6314189;28;20268;-69